createdAt,value
2024-02-02T00:00:08.938Z,0.87
2024-02-02T00:02:39.033Z,1.27
2024-02-02T00:05:06.710Z,1.20
2024-02-02T00:07:34.538Z,1.10
2024-02-02T00:10:01.930Z,1.20
2024-02-02T00:12:29.375Z,1.00
2024-02-02T00:14:56.620Z,0.90
2024-02-02T00:17:23.739Z,1.50
2024-02-02T00:19:50.958Z,1.10
2024-02-02T00:22:21.965Z,1.50
2024-02-02T00:24:49.144Z,1.07
2024-02-02T00:27:16.780Z,1.10
2024-02-02T00:29:47.093Z,1.40
2024-02-02T00:32:15.246Z,1.30
2024-02-02T00:34:43.209Z,1.10
2024-02-02T00:37:10.432Z,1.20
2024-02-02T00:39:40.148Z,1.10
2024-02-02T00:42:07.391Z,0.93
2024-02-02T00:44:34.503Z,0.90
2024-02-02T00:47:01.588Z,1.00
2024-02-02T00:49:29.060Z,1.23
2024-02-02T00:51:56.234Z,1.40
2024-02-02T00:54:23.362Z,1.40
2024-02-02T00:56:50.519Z,1.20
2024-02-02T00:59:17.756Z,0.80
2024-02-02T01:01:44.869Z,1.10
2024-02-02T01:04:11.977Z,1.17
2024-02-02T01:06:39.355Z,1.00
2024-02-02T01:09:06.713Z,1.00
2024-02-02T01:11:33.916Z,1.17
2024-02-02T01:14:01.082Z,1.30
2024-02-02T01:16:28.164Z,0.90
2024-02-02T01:18:55.951Z,1.30
2024-02-02T01:21:23.219Z,1.07
2024-02-02T01:23:50.353Z,1.10
2024-02-02T01:26:17.422Z,0.80
2024-02-02T01:28:44.684Z,0.90
2024-02-02T01:31:11.846Z,1.00
2024-02-02T01:33:39.095Z,1.07
2024-02-02T01:36:06.728Z,1.27
2024-02-02T01:38:33.771Z,1.20
2024-02-02T01:41:00.835Z,1.03
2024-02-02T01:43:28.788Z,0.90
2024-02-02T01:45:55.966Z,1.03
2024-02-02T01:48:23.312Z,0.90
2024-02-02T01:50:50.582Z,0.87
2024-02-02T01:53:17.859Z,1.00
2024-02-02T01:55:45.239Z,0.70
2024-02-02T01:58:12.355Z,1.10
2024-02-02T02:00:39.605Z,1.03
2024-02-02T02:03:06.962Z,0.90
2024-02-02T02:05:34.227Z,0.80
2024-02-02T02:08:01.652Z,0.87
2024-02-02T02:10:30.311Z,1.10
2024-02-02T02:12:57.511Z,0.70
2024-02-02T02:15:25.447Z,0.70
2024-02-02T02:17:53.409Z,0.90
2024-02-02T02:20:27.282Z,0.70
2024-02-02T02:22:54.960Z,0.90
2024-02-02T02:25:22.065Z,0.87
2024-02-02T02:27:49.770Z,0.80
2024-02-02T02:30:17.091Z,0.70
2024-02-02T02:32:44.393Z,0.70
2024-02-02T02:35:12.280Z,0.57
2024-02-02T02:37:40.393Z,0.70
2024-02-02T02:40:10.027Z,0.73
2024-02-02T02:42:37.398Z,0.63
2024-02-02T02:45:04.887Z,0.60
2024-02-02T02:47:32.017Z,0.67
2024-02-02T02:49:59.045Z,0.80
2024-02-02T02:52:26.074Z,0.67
2024-02-02T02:54:53.082Z,0.70
2024-02-02T02:57:20.165Z,0.70
2024-02-02T02:59:47.240Z,1.03
2024-02-02T03:02:14.325Z,0.80
2024-02-02T03:04:41.370Z,0.90
2024-02-02T03:07:08.637Z,0.60
2024-02-02T03:09:37.298Z,0.70
2024-02-02T03:12:04.764Z,0.90
2024-02-02T03:14:31.949Z,0.60
2024-02-02T03:16:59.113Z,0.70
2024-02-02T03:19:26.233Z,0.60
2024-02-02T03:21:53.346Z,0.40
2024-02-02T03:24:20.630Z,0.63
2024-02-02T03:26:47.782Z,0.60
2024-02-02T03:29:14.834Z,0.60
2024-02-02T03:31:41.866Z,0.70
2024-02-02T03:34:08.973Z,0.70
2024-02-02T03:36:36.172Z,0.70
2024-02-02T03:39:03.387Z,0.60
2024-02-02T03:41:30.427Z,0.70
2024-02-02T03:43:57.847Z,1.10
2024-02-02T03:46:25.278Z,0.70
2024-02-02T03:48:53.340Z,0.50
2024-02-02T03:51:20.618Z,0.60
2024-02-02T03:53:47.913Z,0.60
2024-02-02T03:56:15.027Z,0.70
2024-02-02T03:58:42.058Z,0.70
2024-02-02T04:01:09.196Z,0.70
2024-02-02T04:03:36.356Z,0.67
2024-02-02T04:06:04.428Z,0.60
2024-02-02T04:08:31.630Z,0.70
2024-02-02T04:10:58.749Z,0.70
2024-02-02T04:13:25.832Z,0.50
2024-02-02T04:15:52.897Z,0.50
2024-02-02T04:18:20.211Z,0.50
2024-02-02T04:20:47.407Z,0.67
2024-02-02T04:23:14.688Z,0.50
2024-02-02T04:25:41.973Z,0.63
2024-02-02T04:28:09.752Z,0.70
2024-02-02T04:30:37.303Z,0.53
2024-02-02T04:33:05.538Z,0.57
2024-02-02T04:35:36.347Z,0.60
2024-02-02T04:38:04.182Z,0.40
2024-02-02T04:40:31.839Z,0.60
2024-02-02T04:42:59.125Z,0.50
2024-02-02T04:45:26.365Z,0.50
2024-02-02T04:47:53.647Z,0.40
2024-02-02T04:50:20.836Z,0.40
2024-02-02T04:52:47.872Z,0.47
2024-02-02T04:55:15.295Z,0.50
2024-02-02T04:57:42.283Z,0.40
2024-02-02T05:00:10.183Z,1.30
2024-02-02T05:02:38.512Z,0.67
2024-02-02T05:05:09.092Z,0.93
2024-02-02T05:07:37.398Z,0.70
2024-02-02T05:10:05.994Z,1.13
2024-02-02T05:12:36.843Z,0.50
2024-02-02T05:15:04.403Z,0.80
2024-02-02T05:17:31.644Z,1.47
2024-02-02T05:19:58.834Z,1.70
2024-02-02T05:22:25.936Z,0.90
2024-02-02T05:24:53.138Z,0.70
2024-02-02T05:27:20.568Z,0.60
2024-02-02T05:29:49.989Z,0.80
2024-02-02T05:32:17.178Z,0.60
2024-02-02T05:34:44.721Z,0.70
2024-02-02T05:37:11.826Z,0.80
2024-02-02T05:39:38.991Z,0.70
2024-02-02T05:42:06.391Z,0.83
2024-02-02T05:44:33.480Z,0.60
2024-02-02T05:47:00.583Z,0.40
2024-02-02T05:49:27.715Z,0.50
2024-02-02T05:51:54.895Z,0.70
2024-02-02T05:54:22.077Z,0.80
2024-02-02T05:56:49.312Z,0.57
2024-02-02T05:59:16.407Z,0.63
2024-02-02T06:01:43.559Z,0.60
2024-02-02T06:04:10.922Z,0.70
2024-02-02T06:06:38.163Z,0.87
2024-02-02T06:09:06.581Z,0.93
2024-02-02T06:11:33.738Z,0.80
2024-02-02T06:14:00.900Z,0.90
2024-02-02T06:16:28.199Z,0.87
2024-02-02T06:18:55.943Z,1.10
2024-02-02T06:21:23.425Z,0.60
2024-02-02T06:23:50.505Z,0.73
2024-02-02T06:26:17.521Z,0.70
2024-02-02T06:28:44.638Z,0.90
2024-02-02T06:31:11.647Z,0.80
2024-02-02T06:33:38.835Z,0.73
2024-02-02T06:36:06.242Z,0.77
2024-02-02T06:38:33.371Z,0.90
2024-02-02T06:41:00.404Z,0.87
2024-02-02T06:43:27.364Z,0.70
2024-02-02T06:45:54.456Z,0.60
2024-02-02T06:48:22.664Z,0.70
2024-02-02T06:50:49.843Z,1.40
2024-02-02T06:53:17.338Z,0.73
2024-02-02T06:55:44.720Z,1.13
2024-02-02T06:58:38.076Z,1.03
2024-02-02T07:01:06.121Z,0.90
2024-02-02T07:03:34.192Z,0.87
2024-02-02T07:06:03.637Z,0.90
2024-02-02T07:08:34.123Z,0.90
2024-02-02T07:11:13.390Z,1.23
2024-02-02T07:13:46.227Z,0.67
2024-02-02T07:16:28.821Z,1.13
2024-02-02T07:18:56.609Z,1.23
2024-02-02T07:21:32.581Z,1.00
2024-02-02T07:24:00.720Z,1.13
2024-02-02T07:26:38.625Z,0.90
2024-02-02T07:29:15.337Z,0.83
2024-02-02T07:31:48.546Z,1.00
2024-02-02T07:34:36.547Z,1.00
2024-02-02T07:37:18.621Z,1.00
2024-02-02T07:39:45.645Z,0.80
2024-02-02T07:42:12.758Z,1.10
2024-02-02T07:44:39.849Z,1.00
2024-02-02T07:47:06.987Z,0.90
2024-02-02T07:49:34.125Z,1.20
2024-02-02T07:52:01.284Z,1.40
2024-02-02T07:54:28.325Z,1.50
2024-02-02T07:56:55.370Z,1.50
2024-02-02T07:59:22.484Z,1.30
2024-02-02T08:01:49.481Z,1.20
2024-02-02T08:04:16.779Z,1.60
2024-02-02T08:06:43.995Z,1.00
2024-02-02T08:09:11.584Z,0.97
2024-02-02T08:11:38.603Z,0.87
2024-02-02T08:14:05.708Z,1.73
2024-02-02T08:16:32.959Z,1.70
2024-02-02T08:19:00.926Z,0.90
2024-02-02T08:21:28.191Z,0.93
2024-02-02T08:23:55.414Z,1.90
2024-02-02T08:26:22.460Z,1.83
2024-02-02T08:28:54.746Z,1.50
2024-02-02T08:31:22.780Z,1.40
2024-02-02T08:33:50.119Z,1.60
2024-02-02T08:36:19.489Z,1.70
2024-02-02T08:38:46.962Z,2.10
2024-02-02T08:41:14.055Z,2.07
2024-02-02T08:43:43.130Z,1.83
2024-02-02T08:46:12.376Z,1.30
2024-02-02T08:48:50.126Z,1.17
2024-02-02T08:51:27.407Z,1.20
2024-02-02T08:54:00.182Z,1.17
2024-02-02T08:56:27.266Z,1.33
2024-02-02T08:58:55.212Z,1.57
2024-02-02T09:01:42.855Z,1.70
2024-02-02T09:04:28.837Z,2.30
2024-02-02T09:06:56.043Z,2.43
2024-02-02T09:09:24.197Z,2.30
2024-02-02T09:11:52.039Z,4.80
2024-02-02T09:14:19.847Z,4.60
2024-02-02T09:16:52.595Z,5.70
2024-02-02T09:19:37.534Z,6.60
2024-02-02T09:22:13.167Z,6.70
2024-02-02T09:24:52.396Z,5.93
2024-02-02T09:27:25.702Z,5.83
2024-02-02T09:29:54.783Z,6.60
2024-02-02T09:32:22.548Z,7.10
2024-02-02T09:34:49.830Z,6.03
2024-02-02T09:37:23.541Z,6.30
2024-02-02T09:39:58.035Z,6.17
2024-02-02T09:42:34.083Z,6.30
2024-02-02T09:45:08.356Z,4.60
2024-02-02T09:47:44.405Z,5.50
2024-02-02T09:50:57.809Z,5.13
2024-02-02T09:53:45.849Z,2.30
2024-02-02T09:56:51.749Z,1.73
2024-02-02T09:59:49.938Z,2.37
2024-02-02T10:02:34.125Z,3.90
2024-02-02T10:05:33.387Z,3.37
2024-02-02T10:08:00.519Z,3.30
2024-02-02T10:10:46.412Z,3.57
2024-02-02T10:13:20.281Z,4.17
2024-02-02T10:16:21.730Z,3.93
2024-02-02T10:19:20.823Z,3.93
2024-02-02T10:22:21.464Z,3.77
2024-02-02T10:25:39.490Z,3.07
2024-02-02T10:28:27.508Z,2.70
2024-02-02T10:31:02.451Z,3.30
2024-02-02T10:33:50.611Z,3.23
2024-02-02T10:36:45.750Z,2.57
2024-02-02T10:39:24.581Z,2.93
2024-02-02T10:42:15.479Z,2.60
2024-02-02T10:44:45.653Z,3.10
2024-02-02T10:47:36.125Z,2.60
2024-02-02T10:50:19.320Z,2.60
2024-02-02T10:53:04.448Z,3.13
2024-02-02T10:56:02.338Z,3.03
2024-02-02T10:58:29.312Z,3.67
2024-02-02T11:01:05.581Z,3.13
2024-02-02T11:03:40.580Z,3.10
2024-02-02T11:06:19.873Z,3.80
2024-02-02T11:09:37.863Z,3.00
2024-02-02T11:12:23.682Z,3.47
2024-02-02T11:15:10.518Z,3.40
2024-02-02T11:17:51.437Z,3.03
2024-02-02T11:20:39.566Z,3.20
2024-02-02T11:23:38.113Z,3.57
2024-02-02T11:26:17.296Z,3.50
2024-02-02T11:28:53.568Z,2.90
2024-02-02T11:31:51.320Z,3.50
2024-02-02T11:35:09.041Z,3.70
2024-02-02T11:37:56.385Z,2.93
2024-02-02T11:40:26.432Z,3.93
2024-02-02T11:42:56.753Z,3.73
2024-02-02T11:45:27.535Z,4.07
2024-02-02T11:48:06.351Z,3.40
2024-02-02T11:50:39.000Z,3.40
2024-02-02T11:53:31.942Z,2.73
2024-02-02T11:56:06.183Z,3.33
2024-02-02T11:58:37.184Z,3.00
2024-02-02T12:01:25.732Z,5.67
2024-02-02T12:04:21.641Z,4.07
2024-02-02T12:07:24.375Z,3.90
2024-02-02T12:09:57.698Z,4.27
2024-02-02T12:12:46.666Z,5.10
2024-02-02T12:15:16.639Z,4.67
2024-02-02T12:17:43.936Z,4.40
2024-02-02T12:20:18.752Z,4.37
2024-02-02T12:22:46.818Z,4.70
2024-02-02T12:25:16.163Z,5.43
2024-02-02T12:27:43.694Z,4.80
2024-02-02T12:30:13.068Z,4.90
2024-02-02T12:32:40.921Z,4.40
2024-02-02T12:35:09.074Z,4.20
2024-02-02T12:37:49.805Z,4.53
2024-02-02T12:40:17.728Z,4.43
2024-02-02T12:42:45.918Z,4.37
2024-02-02T12:45:14.217Z,4.93
2024-02-02T12:47:41.958Z,5.60
2024-02-02T12:50:17.461Z,4.70
2024-02-02T12:52:46.142Z,5.40
2024-02-02T12:55:14.151Z,5.67
2024-02-02T12:57:43.250Z,6.30
2024-02-02T13:00:17.652Z,6.50
2024-02-02T13:02:47.882Z,6.37
2024-02-02T13:05:19.326Z,6.47
2024-02-02T13:07:52.861Z,5.00
2024-02-02T13:10:39.169Z,7.10
2024-02-02T13:13:18.457Z,6.20
2024-02-02T13:15:46.242Z,7.07
2024-02-02T13:18:19.419Z,6.20
2024-02-02T13:20:53.066Z,5.40
2024-02-02T13:23:31.246Z,4.83
2024-02-02T13:26:05.408Z,5.10
2024-02-02T13:28:44.222Z,5.97
2024-02-02T13:31:14.529Z,6.50
2024-02-02T13:33:47.746Z,6.50
2024-02-02T13:36:18.352Z,5.97
2024-02-02T13:38:48.363Z,6.70
2024-02-02T13:41:21.268Z,7.17
2024-02-02T13:44:05.803Z,6.53
2024-02-02T13:46:33.582Z,7.90
2024-02-02T13:49:02.219Z,7.13
2024-02-02T13:51:30.967Z,6.37
2024-02-02T13:53:58.384Z,6.37
2024-02-02T13:56:28.208Z,6.10
2024-02-02T13:58:55.841Z,6.83
2024-02-02T14:01:26.198Z,7.20
2024-02-02T14:03:58.821Z,5.57
2024-02-02T14:06:26.325Z,6.30
2024-02-02T14:08:55.602Z,6.30
2024-02-02T14:11:31.880Z,6.87
2024-02-02T14:13:59.429Z,6.43
2024-02-02T14:16:27.865Z,6.43
2024-02-02T14:19:04.598Z,5.80
2024-02-02T14:21:33.808Z,5.60
2024-02-02T14:24:17.271Z,5.33
2024-02-02T14:26:53.993Z,6.40
2024-02-02T14:29:25.468Z,6.57
2024-02-02T14:31:57.376Z,5.33
2024-02-02T14:34:25.608Z,5.80
2024-02-02T14:36:53.779Z,6.47
2024-02-02T14:39:38.896Z,7.50
2024-02-02T14:42:06.777Z,8.60
2024-02-02T14:44:34.098Z,8.17
2024-02-02T14:47:02.217Z,7.93
2024-02-02T14:49:29.652Z,8.53
2024-02-02T14:51:57.200Z,8.17
2024-02-02T14:54:25.536Z,7.87
2024-02-02T14:56:53.434Z,8.17
2024-02-02T14:59:30.947Z,7.77
2024-02-02T15:01:59.341Z,8.87
2024-02-02T15:04:26.618Z,7.70
2024-02-02T15:06:54.256Z,8.07
2024-02-02T15:09:22.533Z,8.60
2024-02-02T15:11:51.070Z,7.87
2024-02-02T15:14:18.112Z,7.27
2024-02-02T15:16:45.201Z,7.80
2024-02-02T15:19:12.303Z,7.70
2024-02-02T15:21:39.532Z,7.27
2024-02-02T15:24:06.879Z,8.13
2024-02-02T15:26:38.417Z,7.53
2024-02-02T15:29:05.820Z,7.63
2024-02-02T15:31:34.094Z,7.00
2024-02-02T15:34:03.973Z,6.97
2024-02-02T15:36:33.549Z,8.27
2024-02-02T15:39:13.191Z,9.50
2024-02-02T15:41:47.944Z,8.50
2024-02-02T15:44:15.040Z,9.03
2024-02-02T15:46:42.116Z,7.57
2024-02-02T15:49:10.196Z,8.30
2024-02-02T15:51:37.562Z,6.97
2024-02-02T15:54:06.742Z,8.23
2024-02-02T15:56:34.025Z,9.37
2024-02-02T15:59:02.745Z,8.97
2024-02-02T16:01:30.019Z,8.40
2024-02-02T16:03:57.315Z,13.63
2024-02-02T16:06:24.675Z,9.30
2024-02-02T16:08:51.920Z,8.77
2024-02-02T16:11:20.570Z,8.57
2024-02-02T16:13:47.883Z,8.37
2024-02-02T16:16:15.027Z,8.30
2024-02-02T16:18:42.258Z,8.20
2024-02-02T16:21:09.917Z,7.60
2024-02-02T16:23:37.903Z,7.77
2024-02-02T16:26:05.257Z,7.87
2024-02-02T16:28:32.319Z,8.90
2024-02-02T16:30:59.517Z,9.40
2024-02-02T16:33:26.764Z,7.70
2024-02-02T16:35:54.243Z,9.20
2024-02-02T16:38:21.367Z,9.53
2024-02-02T16:40:48.450Z,10.47
2024-02-02T16:43:15.651Z,11.17
2024-02-02T16:45:43.580Z,10.80
2024-02-02T16:48:10.879Z,10.63
2024-02-02T16:50:38.263Z,9.77
2024-02-02T16:53:07.785Z,9.50
2024-02-02T16:55:35.258Z,9.20
2024-02-02T16:58:02.331Z,8.30
2024-02-02T17:00:30.372Z,9.20
2024-02-02T17:02:57.546Z,8.87
2024-02-02T17:05:24.605Z,10.43
2024-02-02T17:07:51.678Z,8.70
2024-02-02T17:10:18.765Z,8.77
2024-02-02T17:12:45.924Z,8.40
2024-02-02T17:15:13.326Z,9.77
2024-02-02T17:17:41.728Z,8.60
2024-02-02T17:20:11.549Z,8.10
2024-02-02T17:22:44.323Z,9.20
2024-02-02T17:25:12.496Z,8.30
2024-02-02T17:27:39.794Z,8.00
2024-02-02T17:30:08.009Z,7.93
2024-02-02T17:32:39.819Z,8.53
2024-02-02T17:35:08.830Z,9.50
2024-02-02T17:37:36.535Z,8.37
2024-02-02T17:40:05.080Z,8.53
2024-02-02T17:42:32.274Z,8.07
2024-02-02T17:44:59.409Z,8.53
2024-02-02T17:47:26.468Z,9.50
2024-02-02T17:49:56.735Z,9.67
2024-02-02T17:52:25.309Z,10.50
2024-02-02T17:54:52.500Z,8.47
2024-02-02T17:57:20.064Z,8.80
2024-02-02T17:59:47.357Z,9.00
2024-02-02T18:02:14.588Z,8.80
2024-02-02T18:04:41.985Z,8.93
2024-02-02T18:07:12.647Z,8.67
2024-02-02T18:09:40.540Z,9.93
2024-02-02T18:12:14.771Z,10.50
2024-02-02T18:14:42.512Z,10.20
2024-02-02T18:17:10.584Z,10.37
2024-02-02T18:19:38.213Z,11.10
2024-02-02T18:22:05.490Z,10.27
2024-02-02T18:24:32.541Z,11.03
2024-02-02T18:26:59.698Z,11.50
2024-02-02T18:29:26.840Z,9.70
2024-02-02T18:31:56.756Z,9.60
2024-02-02T18:34:23.898Z,9.80
2024-02-02T18:36:51.152Z,9.70
2024-02-02T18:39:20.950Z,12.43
2024-02-02T18:41:48.045Z,10.33
2024-02-02T18:44:15.130Z,10.23
2024-02-02T18:46:42.234Z,10.97
2024-02-02T18:49:09.635Z,10.87
2024-02-02T18:51:36.874Z,10.40
2024-02-02T18:54:04.237Z,10.57
2024-02-02T18:56:34.192Z,10.17
2024-02-02T18:59:01.290Z,11.33
2024-02-02T19:01:35.702Z,9.67
2024-02-02T19:04:03.124Z,10.37
2024-02-02T19:06:30.497Z,10.53
2024-02-02T19:08:57.666Z,11.40
2024-02-02T19:11:24.833Z,10.77
2024-02-02T19:13:52.223Z,11.27
2024-02-02T19:16:24.646Z,11.43
2024-02-02T19:18:53.158Z,8.70
2024-02-02T19:21:24.323Z,8.60
2024-02-02T19:23:51.533Z,9.80
2024-02-02T19:26:20.034Z,9.00
2024-02-02T19:28:47.229Z,6.80
2024-02-02T19:31:24.949Z,7.83
2024-02-02T19:33:52.882Z,8.80
2024-02-02T19:36:28.036Z,8.90
2024-02-02T19:38:56.681Z,8.00
2024-02-02T19:41:29.667Z,8.20
2024-02-02T19:43:56.919Z,8.07
2024-02-02T19:46:25.407Z,8.60
2024-02-02T19:48:54.124Z,7.40
2024-02-02T19:51:23.075Z,7.70
2024-02-02T19:53:50.425Z,6.73
2024-02-02T19:56:19.444Z,6.60
2024-02-02T19:58:46.875Z,7.43
2024-02-02T20:01:19.730Z,5.70
2024-02-02T20:03:48.479Z,5.40
2024-02-02T20:06:17.839Z,5.20
2024-02-02T20:08:46.235Z,6.63
2024-02-02T20:11:14.059Z,5.40
2024-02-02T20:13:41.963Z,5.50
2024-02-02T20:16:09.996Z,6.60
2024-02-02T20:18:37.263Z,8.87
2024-02-02T20:21:05.006Z,9.33
2024-02-02T20:23:34.766Z,9.73
2024-02-02T20:26:05.559Z,9.67
2024-02-02T20:28:33.001Z,11.47
2024-02-02T20:31:00.747Z,14.27
2024-02-02T20:33:27.841Z,10.83
2024-02-02T20:35:55.730Z,11.80
2024-02-02T20:38:22.847Z,16.53
2024-02-02T20:40:49.946Z,11.03
2024-02-02T20:43:17.080Z,11.23
2024-02-02T20:45:44.080Z,12.10
2024-02-02T20:48:11.365Z,11.33
2024-02-02T20:50:39.033Z,10.50
2024-02-02T20:53:06.227Z,12.50
2024-02-02T20:55:33.468Z,11.60
2024-02-02T20:58:02.533Z,13.67
2024-02-02T21:00:31.183Z,6.33
2024-02-02T21:02:58.521Z,6.60
2024-02-02T21:05:25.983Z,5.60
2024-02-02T21:07:53.912Z,5.10
2024-02-02T21:10:21.299Z,3.60
2024-02-02T21:12:48.733Z,3.63
2024-02-02T21:15:17.519Z,4.80
2024-02-02T21:17:48.529Z,4.90
2024-02-02T21:20:16.065Z,5.50
2024-02-02T21:22:43.130Z,7.10
2024-02-02T21:25:10.491Z,4.20
2024-02-02T21:27:37.506Z,3.53
2024-02-02T21:30:06.690Z,4.07
2024-02-02T21:32:34.082Z,5.00
2024-02-02T21:35:02.316Z,3.83
2024-02-02T21:37:29.540Z,4.80
2024-02-02T21:39:56.978Z,5.37
2024-02-02T21:42:24.151Z,5.03
2024-02-02T21:44:52.737Z,7.80
2024-02-02T21:47:19.954Z,10.00
2024-02-02T21:49:47.367Z,8.30
2024-02-02T21:52:14.648Z,5.23
2024-02-02T21:54:41.874Z,4.83
2024-02-02T21:57:09.689Z,4.20
2024-02-02T21:59:39.990Z,5.57
2024-02-02T22:02:07.530Z,4.10
2024-02-02T22:04:34.783Z,4.70
2024-02-02T22:07:04.362Z,5.67
2024-02-02T22:09:32.132Z,3.20
2024-02-02T22:11:59.390Z,4.07
2024-02-02T22:14:27.026Z,4.07
2024-02-02T22:16:54.258Z,3.60
2024-02-02T22:19:21.443Z,3.50
2024-02-02T22:21:48.726Z,3.80
2024-02-02T22:24:16.411Z,4.83
2024-02-02T22:26:43.641Z,3.20
2024-02-02T22:29:10.905Z,2.40
2024-02-02T22:31:39.885Z,2.93
2024-02-02T22:34:07.624Z,3.20
2024-02-02T22:36:34.860Z,2.60
2024-02-02T22:39:02.001Z,2.87
2024-02-02T22:41:33.838Z,1.90
2024-02-02T22:44:02.834Z,2.10
2024-02-02T22:46:34.452Z,1.83
2024-02-02T22:49:02.275Z,1.60
2024-02-02T22:51:29.790Z,1.40
2024-02-02T22:53:56.986Z,2.00
2024-02-02T22:56:24.236Z,1.27
2024-02-02T22:58:51.407Z,1.40
2024-02-02T23:01:19.350Z,2.53
2024-02-02T23:03:46.663Z,1.70
2024-02-02T23:06:13.895Z,2.20
2024-02-02T23:08:41.174Z,1.33
2024-02-02T23:11:08.387Z,1.40
2024-02-02T23:13:35.524Z,1.13
2024-02-02T23:16:02.843Z,1.20
2024-02-02T23:18:31.119Z,1.50
2024-02-02T23:21:00.507Z,1.70
2024-02-02T23:23:27.856Z,1.50
2024-02-02T23:25:55.070Z,1.60
2024-02-02T23:28:22.482Z,1.53
2024-02-02T23:30:50.405Z,1.30
2024-02-02T23:33:17.969Z,1.60
2024-02-02T23:35:45.171Z,1.10
2024-02-02T23:38:12.502Z,1.00
2024-02-02T23:40:40.150Z,0.60
2024-02-02T23:43:07.208Z,0.70
2024-02-02T23:45:34.412Z,0.60
2024-02-02T23:48:01.523Z,0.70
2024-02-02T23:50:28.537Z,0.80
2024-02-02T23:52:55.692Z,1.30
2024-02-02T23:55:22.889Z,1.10
2024-02-02T23:57:50.843Z,1.07
